createdAt,value
2018-12-03T00:00:00.880Z,99628.83
2018-12-03T00:02:33.966Z,99629.02
2018-12-03T00:05:06.431Z,99634.70
2018-12-03T00:07:38.757Z,99634.30
2018-12-03T00:10:11.551Z,99639.61
2018-12-03T00:12:43.619Z,99651.23
2018-12-03T00:15:15.681Z,99649.98
2018-12-03T00:17:47.954Z,99646.92
2018-12-03T00:20:20.226Z,99650.04
2018-12-03T00:22:52.421Z,99650.73
2018-12-03T00:25:24.476Z,99655.59
2018-12-03T00:27:56.623Z,99656.03
2018-12-03T00:30:28.827Z,99656.93
2018-12-03T00:33:00.987Z,99651.93
2018-12-03T00:35:33.505Z,99664.96
2018-12-03T00:38:05.625Z,99662.99
2018-12-03T00:40:37.724Z,99670.57
2018-12-03T00:43:09.801Z,99675.44
2018-12-03T00:45:41.828Z,99680.09
2018-12-03T00:48:13.726Z,99687.11
2018-12-03T00:50:45.394Z,99684.06
2018-12-03T00:53:17.453Z,99684.96
2018-12-03T00:55:49.646Z,99692.03
2018-12-03T00:58:21.918Z,99691.08
2018-12-03T01:00:53.550Z,99689.48
2018-12-03T01:03:25.714Z,99691.30
2018-12-03T01:05:58.392Z,99691.89
2018-12-03T01:08:30.391Z,99696.63
2018-12-03T01:11:02.997Z,99700.42
2018-12-03T01:13:34.800Z,99705.98
2018-12-03T01:16:06.845Z,99708.82
2018-12-03T01:18:40.271Z,99717.02
2018-12-03T01:21:12.047Z,99719.74
2018-12-03T01:23:44.190Z,99719.74
2018-12-03T01:26:15.817Z,99731.37
2018-12-03T01:28:47.659Z,99732.04
2018-12-03T01:31:21.693Z,99735.27
2018-12-03T01:33:54.004Z,99737.58
2018-12-03T01:36:26.228Z,99740.58
2018-12-03T01:38:58.134Z,99740.66
2018-12-03T01:41:29.873Z,99743.19
2018-12-03T01:44:01.939Z,99743.59
2018-12-03T01:46:33.718Z,99742.05
2018-12-03T01:49:05.664Z,99747.94
2018-12-03T01:51:37.769Z,99752.38
2018-12-03T01:54:09.830Z,99758.94
2018-12-03T01:56:44.332Z,99758.09
2018-12-03T01:59:16.300Z,99766.98
2018-12-03T02:01:48.205Z,99763.42
2018-12-03T02:04:19.957Z,99768.11
2018-12-03T02:06:52.144Z,99765.73
2018-12-03T02:09:24.235Z,99767.75
2018-12-03T02:11:56.033Z,99775.69
2018-12-03T02:14:28.243Z,99781.38
2018-12-03T02:17:00.091Z,99788.02
2018-12-03T02:19:33.068Z,99790.44
2018-12-03T02:22:04.889Z,99795.67
2018-12-03T02:24:37.136Z,99798.93
2018-12-03T02:27:09.434Z,99805.11
2018-12-03T02:29:41.521Z,99805.82
2018-12-03T02:32:13.210Z,99803.52
2018-12-03T02:34:45.347Z,99805.45
2018-12-03T02:37:17.567Z,99809.38
2018-12-03T02:39:49.332Z,99811.81
2018-12-03T02:42:21.157Z,99813.83
2018-12-03T02:44:52.895Z,99820.14
2018-12-03T02:47:24.348Z,99816.70
2018-12-03T02:49:56.055Z,99824.40
2018-12-03T02:52:28.096Z,99826.42
2018-12-03T02:55:00.182Z,99829.75
2018-12-03T02:57:32.030Z,99833.33
2018-12-03T03:00:04.106Z,99837.88
2018-12-03T03:02:36.041Z,99847.73
2018-12-03T03:05:09.950Z,99855.95
2018-12-03T03:07:41.926Z,99856.34
2018-12-03T03:10:15.769Z,99855.42
2018-12-03T03:12:48.042Z,99857.47
2018-12-03T03:15:19.965Z,99863.17
2018-12-03T03:17:52.750Z,99873.87
2018-12-03T03:20:25.326Z,99876.72
2018-12-03T03:22:57.109Z,99877.02
2018-12-03T03:25:29.348Z,99883.30
2018-12-03T03:28:01.504Z,99876.06
2018-12-03T03:30:33.419Z,99895.17
2018-12-03T03:33:05.472Z,99897.62
2018-12-03T03:35:37.688Z,99892.39
2018-12-03T03:38:10.904Z,99885.62
2018-12-03T03:40:42.787Z,99889.94
2018-12-03T03:43:14.531Z,99894.98
2018-12-03T03:45:46.588Z,99888.43
2018-12-03T03:48:18.717Z,99893.56
2018-12-03T03:50:50.602Z,99898.97
2018-12-03T03:53:22.401Z,99898.52
2018-12-03T03:55:54.240Z,99903.42
2018-12-03T03:58:26.224Z,99902.44
2018-12-03T04:00:57.985Z,99906.77
2018-12-03T04:03:29.602Z,99908.77
2018-12-03T04:06:01.676Z,99908.42
2018-12-03T04:08:33.961Z,99911.38
2018-12-03T04:11:05.723Z,99912.27
2018-12-03T04:13:37.628Z,99905.72
2018-12-03T04:16:09.674Z,99913.20
2018-12-03T04:18:41.849Z,99920.29
2018-12-03T04:21:14.137Z,99922.44
2018-12-03T04:23:46.379Z,99918.05
2018-12-03T04:26:18.144Z,99919.37
2018-12-03T04:28:50.029Z,99922.13
2018-12-03T04:31:21.960Z,99911.35
2018-12-03T04:33:53.840Z,99916.51
2018-12-03T04:36:25.904Z,99912.81
2018-12-03T04:38:58.215Z,99914.73
2018-12-03T04:41:30.608Z,99911.97
2018-12-03T04:44:02.608Z,99906.26
2018-12-03T04:46:34.264Z,99908.70
2018-12-03T04:49:06.106Z,99897.08
2018-12-03T04:51:37.999Z,99904.70
2018-12-03T04:54:10.073Z,99896.30
2018-12-03T04:56:41.912Z,99899.84
2018-12-03T04:59:13.688Z,99897.30
2018-12-03T05:01:45.528Z,99901.20
2018-12-03T05:04:16.979Z,99894.53
2018-12-03T05:06:49.629Z,99898.22
2018-12-03T05:09:22.127Z,99894.22
2018-12-03T05:11:54.169Z,99895.91
2018-12-03T05:14:25.582Z,99896.70
2018-12-03T05:16:57.412Z,99891.20
2018-12-03T05:19:29.302Z,99888.27
2018-12-03T05:22:00.820Z,99884.22
2018-12-03T05:24:32.693Z,99878.66
2018-12-03T05:27:04.427Z,99882.98
2018-12-03T05:29:36.017Z,99873.41
2018-12-03T05:32:09.125Z,99869.20
2018-12-03T05:34:40.813Z,99872.08
2018-12-03T05:37:12.698Z,99871.22
2018-12-03T05:39:45.275Z,99869.06
2018-12-03T05:42:17.044Z,99864.42
2018-12-03T05:44:48.865Z,99861.02
2018-12-03T05:47:20.558Z,99862.32
2018-12-03T05:49:52.149Z,99852.03
2018-12-03T05:52:23.644Z,99856.39
2018-12-03T05:54:55.145Z,99852.05
2018-12-03T05:57:26.701Z,99851.73
2018-12-03T05:59:58.400Z,99845.68
2018-12-03T06:02:29.986Z,99843.58
2018-12-03T06:05:01.715Z,99844.55
2018-12-03T06:07:33.326Z,99839.30
2018-12-03T06:10:05.988Z,99837.34
2018-12-03T06:12:37.362Z,99835.38
2018-12-03T06:15:11.565Z,99820.43
2018-12-03T06:17:43.138Z,99811.93
2018-12-03T06:20:17.709Z,99814.16
2018-12-03T06:22:49.881Z,99813.74
2018-12-03T06:25:22.719Z,99804.00
2018-12-03T06:27:54.283Z,99803.08
2018-12-03T06:30:26.968Z,99796.43
2018-12-03T06:32:58.345Z,99794.48
2018-12-03T06:35:29.902Z,99790.85
2018-12-03T06:38:01.276Z,99783.84
2018-12-03T06:40:34.548Z,99781.23
2018-12-03T06:43:06.051Z,99778.53
2018-12-03T06:45:37.806Z,99772.67
2018-12-03T06:48:17.220Z,99769.19
2018-12-03T06:50:48.915Z,99764.14
2018-12-03T06:53:20.438Z,99759.89
2018-12-03T06:55:52.035Z,99761.06
2018-12-03T06:58:23.507Z,99756.73
2018-12-03T07:00:54.979Z,99745.33
2018-12-03T07:03:26.522Z,99743.55
2018-12-03T07:05:58.119Z,99731.50
2018-12-03T07:08:30.636Z,99721.83
2018-12-03T07:11:02.907Z,99716.50
2018-12-03T07:13:34.345Z,99718.48
2018-12-03T07:16:05.924Z,99709.09
2018-12-03T07:18:38.283Z,99714.34
2018-12-03T07:21:09.873Z,99707.52
2018-12-03T07:23:43.053Z,99702.91
2018-12-03T07:26:15.739Z,99704.59
2018-12-03T07:28:47.207Z,99698.70
2018-12-03T07:31:19.139Z,99692.04
2018-12-03T07:33:50.757Z,99688.67
2018-12-03T07:36:22.383Z,99688.01
2018-12-03T07:38:53.870Z,99681.72
2018-12-03T07:41:27.008Z,99679.66
2018-12-03T07:43:58.547Z,99677.48
2018-12-03T07:46:30.351Z,99672.70
2018-12-03T07:49:01.873Z,99665.23
2018-12-03T07:51:33.712Z,99659.84
2018-12-03T07:54:05.302Z,99659.53
2018-12-03T07:56:36.931Z,99649.31
2018-12-03T07:59:08.751Z,99646.23
2018-12-03T08:01:40.397Z,99636.88
2018-12-03T08:04:12.059Z,99633.44
2018-12-03T08:06:43.758Z,99635.30
2018-12-03T08:09:15.371Z,99637.14
2018-12-03T08:11:47.947Z,99628.70
2018-12-03T08:14:20.613Z,99624.47
2018-12-03T08:16:52.678Z,99620.81
2018-12-03T08:19:28.320Z,99618.66
2018-12-03T08:22:03.350Z,99612.44
2018-12-03T08:24:35.098Z,99609.27
2018-12-03T08:27:07.057Z,99605.80
2018-12-03T08:29:39.722Z,99594.86
2018-12-03T08:32:11.295Z,99597.09
2018-12-03T08:34:42.706Z,99595.59
2018-12-03T08:37:15.034Z,99589.98
2018-12-03T08:39:46.753Z,99596.73
2018-12-03T08:42:19.411Z,99584.78
2018-12-03T08:44:51.912Z,99578.16
2018-12-03T08:47:23.639Z,99577.05
2018-12-03T08:49:55.683Z,99576.05
2018-12-03T08:52:27.694Z,99575.08
2018-12-03T08:55:00.180Z,99575.73
2018-12-03T08:57:32.538Z,99572.66
2018-12-03T09:00:04.772Z,99574.04
2018-12-03T09:02:36.328Z,99569.77
2018-12-03T09:05:09.046Z,99567.42
2018-12-03T09:07:42.806Z,99570.19
2018-12-03T09:10:17.444Z,99557.88
2018-12-03T09:12:49.774Z,99556.25
2018-12-03T09:15:21.199Z,99557.19
2018-12-03T09:17:52.929Z,99553.77
2018-12-03T09:20:25.275Z,99550.28
2018-12-03T09:22:57.557Z,99544.56
2018-12-03T09:25:29.284Z,99540.27
2018-12-03T09:28:01.084Z,99537.21
2018-12-03T09:30:33.084Z,99543.15
2018-12-03T09:33:04.924Z,99547.94
2018-12-03T09:35:37.258Z,99545.34
2018-12-03T09:38:11.308Z,99542.37
2018-12-03T09:40:42.847Z,99547.03
2018-12-03T09:43:15.902Z,99548.01
2018-12-03T09:45:47.774Z,99545.12
2018-12-03T09:48:19.356Z,99543.84
2018-12-03T09:50:50.870Z,99538.16
2018-12-03T09:53:22.639Z,99545.41
2018-12-03T09:55:54.440Z,99535.51
2018-12-03T09:58:26.581Z,99534.16
2018-12-03T10:00:58.821Z,99535.00
2018-12-03T10:03:35.561Z,99529.88
2018-12-03T10:06:15.986Z,99527.26
2018-12-03T10:08:48.057Z,99528.11
2018-12-03T10:11:19.673Z,99531.39
2018-12-03T10:13:52.571Z,99531.77
2018-12-03T10:16:24.625Z,99533.03
2018-12-03T10:19:00.333Z,99525.73
2018-12-03T10:21:28.419Z,99529.97
2018-12-03T10:24:00.209Z,99522.59
2018-12-03T10:26:33.110Z,99526.39
2018-12-03T10:29:05.334Z,99521.88
2018-12-03T10:31:37.405Z,99526.02
2018-12-03T10:34:12.142Z,99523.91
2018-12-03T10:36:51.586Z,99522.73
2018-12-03T10:39:28.625Z,99524.86
2018-12-03T10:42:09.137Z,99525.73
2018-12-03T10:44:41.807Z,99532.25
2018-12-03T10:47:13.915Z,99539.58
2018-12-03T10:49:45.978Z,99537.80
2018-12-03T10:52:22.485Z,99534.19
2018-12-03T10:54:54.705Z,99532.88
2018-12-03T10:57:26.626Z,99530.72
2018-12-03T10:59:59.216Z,99532.78
2018-12-03T11:02:38.237Z,99538.48
2018-12-03T11:05:15.435Z,99537.26
2018-12-03T11:07:47.974Z,99546.47
2018-12-03T11:10:20.180Z,99544.50
2018-12-03T11:12:53.827Z,99542.62
2018-12-03T11:15:26.247Z,99539.89
2018-12-03T11:17:57.864Z,99545.53
2018-12-03T11:20:30.790Z,99547.41
2018-12-03T11:23:03.669Z,99544.03
2018-12-03T11:25:37.232Z,99544.97
2018-12-03T11:28:11.114Z,99549.14
2018-12-03T11:30:51.804Z,99550.83
2018-12-03T11:33:28.260Z,99554.88
2018-12-03T11:36:01.426Z,99556.00
2018-12-03T11:38:39.204Z,99556.09
2018-12-03T11:41:11.172Z,99553.67
2018-12-03T11:43:42.816Z,99552.55
2018-12-03T11:46:17.678Z,99551.92
2018-12-03T11:48:49.351Z,99550.61
2018-12-03T11:51:21.414Z,99551.64
2018-12-03T11:53:55.556Z,99556.36
2018-12-03T11:56:27.526Z,99554.30
2018-12-03T11:58:59.470Z,99552.23
2018-12-03T12:01:31.393Z,99553.54
2018-12-03T12:04:04.313Z,99553.76
2018-12-03T12:06:36.162Z,99552.06
2018-12-03T12:09:12.208Z,99558.14
2018-12-03T12:11:44.215Z,99556.92
2018-12-03T12:14:21.659Z,99563.67
2018-12-03T12:16:53.763Z,99569.61
2018-12-03T12:19:25.340Z,99570.34
2018-12-03T12:21:57.346Z,99576.55
2018-12-03T12:24:30.894Z,99575.78
2018-12-03T12:27:02.728Z,99582.28
2018-12-03T12:29:39.074Z,99581.14
2018-12-03T12:32:10.916Z,99591.56
2018-12-03T12:34:43.616Z,99599.63
2018-12-03T12:37:15.512Z,99602.55
2018-12-03T12:39:47.407Z,99612.39
2018-12-03T12:42:19.397Z,99613.36
2018-12-03T12:44:51.422Z,99621.41
2018-12-03T12:47:24.262Z,99625.91
2018-12-03T12:50:00.468Z,99633.41
2018-12-03T12:52:32.709Z,99630.44
2018-12-03T12:55:04.188Z,99637.36
2018-12-03T12:57:35.904Z,99633.80
2018-12-03T13:00:13.028Z,99634.72
2018-12-03T13:02:46.379Z,99637.00
2018-12-03T13:05:18.145Z,99645.52
2018-12-03T13:07:49.615Z,99644.89
2018-12-03T13:10:21.190Z,99651.80
2018-12-03T13:12:54.094Z,99649.39
2018-12-03T13:15:26.042Z,99654.27
2018-12-03T13:17:58.586Z,99655.76
2018-12-03T13:51:22.973Z,99691.06
2018-12-03T13:53:55.376Z,99694.44
2018-12-03T13:56:27.175Z,99701.91
2018-12-03T13:58:59.313Z,99704.30
2018-12-03T14:01:31.150Z,99707.78
2018-12-03T14:04:08.391Z,99707.51
2018-12-03T14:06:45.553Z,99707.48
2018-12-03T14:11:36.467Z,99705.95
2018-12-03T14:14:23.103Z,99710.61
2018-12-03T14:17:02.253Z,99715.47
2018-12-03T14:19:35.021Z,99717.72
2018-12-03T14:22:14.695Z,99720.80
2018-12-03T14:24:47.571Z,99718.84
2018-12-03T14:27:19.232Z,99715.75
2018-12-03T14:29:51.470Z,99716.67
2018-12-03T14:32:23.375Z,99722.86
2018-12-03T14:34:56.174Z,99721.63
2018-12-03T14:37:28.928Z,99721.90
2018-12-03T14:40:00.997Z,99720.67
2018-12-03T14:42:33.457Z,99722.38
2018-12-03T14:45:05.901Z,99731.95
2018-12-03T14:47:38.099Z,99731.68
2018-12-03T14:50:12.207Z,99737.55
2018-12-03T14:52:44.051Z,99743.88
2018-12-03T14:55:16.984Z,99736.89
2018-12-03T14:57:49.282Z,99736.43
2018-12-03T15:00:21.333Z,99743.22
2018-12-03T15:02:53.170Z,99745.15
2018-12-03T15:05:25.240Z,99742.95
2018-12-03T15:07:56.765Z,99740.59
2018-12-03T15:10:28.536Z,99749.31
2018-12-03T15:13:00.365Z,99757.84
2018-12-03T15:15:32.050Z,99757.46
2018-12-03T15:18:03.582Z,99754.09
2018-12-03T15:20:35.483Z,99762.09
2018-12-03T15:23:07.584Z,99769.81
2018-12-03T15:25:39.966Z,99772.44
2018-12-03T15:28:15.453Z,99770.13
2018-12-03T15:30:46.989Z,99777.14
2018-12-03T15:33:18.658Z,99774.84
2018-12-03T15:35:50.272Z,99778.13
2018-12-03T15:38:21.763Z,99781.86
2018-12-03T15:40:53.835Z,99784.34
2018-12-03T15:43:26.338Z,99782.11
2018-12-03T15:45:58.437Z,99787.87
2018-12-03T15:48:30.304Z,99786.18
2018-12-03T15:51:02.304Z,99782.58
2018-12-03T15:53:34.471Z,99783.30
2018-12-03T15:56:07.272Z,99789.39
2018-12-03T15:58:38.933Z,99782.91
2018-12-03T16:01:14.436Z,99776.36
2018-12-03T16:03:44.877Z,99783.76
2018-12-03T16:06:17.149Z,99787.77
2018-12-03T16:08:48.798Z,99790.70
2018-12-03T16:11:20.601Z,99785.77
2018-12-03T16:13:52.157Z,99787.16
2018-12-03T16:16:24.103Z,99789.99
2018-12-03T16:18:56.041Z,99792.26
2018-12-03T16:21:27.798Z,99788.07
2018-12-03T16:23:59.761Z,99791.02
2018-12-03T16:26:31.808Z,99786.48
2018-12-03T16:29:03.728Z,99789.23
2018-12-03T16:31:36.893Z,99789.23
2018-12-03T16:34:08.808Z,99791.33
2018-12-03T16:36:40.647Z,99783.69
2018-12-03T16:39:12.610Z,99786.14
2018-12-03T16:41:44.556Z,99786.81
2018-12-03T16:44:16.618Z,99790.98
2018-12-03T16:46:49.124Z,99790.47
2018-12-03T16:49:21.178Z,99792.38
2018-12-03T16:51:53.179Z,99802.00
2018-12-03T16:54:24.692Z,99802.97
2018-12-03T16:56:57.721Z,99802.59
2018-12-03T16:59:29.298Z,99804.27
2018-12-03T17:02:01.302Z,99803.09
2018-12-03T17:04:33.197Z,99798.03
2018-12-03T17:07:05.122Z,99802.66
2018-12-03T17:09:36.808Z,99799.39
2018-12-03T17:12:11.341Z,99802.17
2018-12-03T17:14:43.127Z,99796.16
2018-12-03T17:17:16.730Z,99788.55
2018-12-03T17:19:54.858Z,99782.22
2018-12-03T17:23:03.664Z,99786.77
2018-12-03T17:25:35.184Z,99790.06
2018-12-03T17:28:07.423Z,99797.98
2018-12-03T17:30:39.118Z,99794.84
2018-12-03T17:33:10.812Z,99794.91
2018-12-03T17:38:43.731Z,99804.30
2018-12-03T17:41:15.466Z,99805.74
2018-12-03T17:43:48.769Z,99816.17
2018-12-03T17:46:21.977Z,99810.84
2018-12-03T17:48:54.896Z,99811.63
2018-12-03T17:51:27.292Z,99809.93
2018-12-03T17:54:03.657Z,99810.38
2018-12-03T17:56:36.759Z,99819.48
2018-12-03T17:59:09.778Z,99816.08
2018-12-03T18:01:42.288Z,99819.25
2018-12-03T18:04:15.905Z,99816.59
2018-12-03T18:06:49.740Z,99821.03
2018-12-03T18:09:22.565Z,99826.02
2018-12-03T18:11:54.226Z,99817.42
2018-12-03T18:14:27.329Z,99820.43
2018-12-03T18:16:59.963Z,99824.17
2018-12-03T18:19:33.711Z,99816.97
2018-12-03T18:22:07.676Z,99805.78
2018-12-03T18:24:43.701Z,99812.06
2018-12-03T18:27:15.505Z,99822.81
2018-12-03T18:29:49.107Z,99821.47
2018-12-03T18:32:30.397Z,99826.48
2018-12-03T18:35:11.894Z,99821.27
2018-12-03T18:37:45.613Z,99818.98
2018-12-03T18:40:20.421Z,99816.88
2018-12-03T18:42:54.140Z,99815.78
2018-12-03T18:45:26.019Z,99815.91
2018-12-03T18:47:57.441Z,99817.56
2018-12-03T18:50:33.065Z,99813.12
2018-12-03T18:53:10.505Z,99813.92
2018-12-03T18:55:42.068Z,99810.89
2018-12-03T18:58:15.878Z,99803.05
2018-12-03T19:00:48.956Z,99794.02
2018-12-03T19:03:20.529Z,99796.05
2018-12-03T19:05:53.066Z,99802.77
2018-12-03T19:08:24.870Z,99801.64
2018-12-03T19:10:57.924Z,99804.41
2018-12-03T19:13:30.667Z,99800.67
2018-12-03T19:16:02.756Z,99805.59
2018-12-03T19:18:34.604Z,99808.67
2018-12-03T19:21:06.549Z,99809.87
2018-12-03T19:23:38.776Z,99807.09
2018-12-03T19:26:10.513Z,99809.80
2018-12-03T19:28:42.904Z,99812.62
2018-12-03T19:31:15.080Z,99810.58
2018-12-03T19:33:49.091Z,99809.13
2018-12-03T19:36:25.839Z,99805.99
2018-12-03T19:38:57.714Z,99806.91
2018-12-03T19:41:29.792Z,99802.02
2018-12-03T19:44:02.815Z,99806.51
2018-12-03T19:46:35.380Z,99808.36
2018-12-03T19:49:08.152Z,99815.28
2018-12-03T19:51:41.661Z,99818.36
2018-12-03T19:54:14.794Z,99824.68
2018-12-03T19:56:47.476Z,99824.44
2018-12-03T19:59:19.129Z,99823.01
2018-12-03T20:01:51.454Z,99815.23
2018-12-03T20:04:28.128Z,99806.22
2018-12-03T20:06:59.806Z,99806.55
2018-12-03T20:09:31.146Z,99808.69
2018-12-03T20:12:02.635Z,99815.86
2018-12-03T20:14:34.023Z,99817.12
2018-12-03T20:17:09.174Z,99815.92
2018-12-03T20:19:43.880Z,99817.71
2018-12-03T20:22:18.557Z,99819.33
2018-12-03T20:24:50.250Z,99823.24
2018-12-03T20:27:32.238Z,99823.13
2018-12-03T20:31:14.268Z,99827.90
2018-12-03T20:34:24.089Z,99833.77
2018-12-03T20:37:06.794Z,99833.64
2018-12-03T20:39:50.750Z,99828.36
2018-12-03T20:42:26.942Z,99824.38
2018-12-03T20:45:16.676Z,99822.34
2018-12-03T20:47:51.724Z,99824.10
2018-12-03T20:50:35.361Z,99819.17
2018-12-03T20:53:10.708Z,99824.53
2018-12-03T20:55:45.388Z,99830.77
2018-12-03T20:58:17.303Z,99827.88
2018-12-03T21:00:49.056Z,99826.00
2018-12-03T21:03:22.401Z,99827.43
2018-12-03T21:05:55.245Z,99822.59
2018-12-03T21:08:32.747Z,99819.47
2018-12-03T21:11:05.637Z,99819.73
2018-12-03T21:13:39.661Z,99819.33
2018-12-03T21:16:11.609Z,99824.95
2018-12-03T21:18:43.584Z,99831.97
2018-12-03T21:21:15.560Z,99836.20
2018-12-03T21:23:48.241Z,99837.36
2018-12-03T21:26:19.940Z,99836.91
2018-12-03T21:28:51.911Z,99844.76
2018-12-03T21:31:24.631Z,99843.30
2018-12-03T21:33:56.203Z,99843.90
2018-12-03T21:36:29.470Z,99842.55
2018-12-03T21:39:02.502Z,99838.23
2018-12-03T21:41:36.964Z,99836.48
2018-12-03T21:44:08.684Z,99830.79
2018-12-03T21:46:40.789Z,99825.72
2018-12-03T21:49:12.760Z,99826.73
2018-12-03T21:51:45.480Z,99829.69
2018-12-03T21:54:22.235Z,99823.73
2018-12-03T21:56:54.373Z,99826.94
2018-12-03T21:59:27.477Z,99824.68
2018-12-03T22:02:01.537Z,99835.63
2018-12-03T22:04:34.302Z,99835.97
2018-12-03T22:07:17.135Z,99839.99
2018-12-03T22:09:50.066Z,99838.27
2018-12-03T22:12:25.376Z,99833.76
2018-12-03T22:15:01.479Z,99844.05
2018-12-03T22:17:36.877Z,99844.73
2018-12-03T22:20:15.245Z,99836.11
2018-12-03T22:22:47.244Z,99834.56
2018-12-03T22:25:20.945Z,99831.64
2018-12-03T22:27:58.749Z,99836.22
2018-12-03T22:30:30.797Z,99833.05
2018-12-03T22:33:07.538Z,99832.30
2018-12-03T22:35:39.203Z,99839.95
2018-12-03T22:38:11.467Z,99836.19
2018-12-03T22:40:45.055Z,99843.91
2018-12-03T22:43:19.435Z,99842.34
2018-12-03T22:45:57.104Z,99831.83
2018-12-03T22:48:33.985Z,99835.02
2018-12-03T22:51:08.031Z,99830.20
2018-12-03T22:53:40.616Z,99830.02
2018-12-03T22:56:12.994Z,99827.86
2018-12-03T22:58:46.537Z,99827.91
2018-12-03T23:01:25.136Z,99821.39
2018-12-03T23:03:57.065Z,99823.09
2018-12-03T23:06:29.985Z,99824.20
2018-12-03T23:09:02.107Z,99813.70
2018-12-03T23:11:36.173Z,99808.54
2018-12-03T23:14:08.173Z,99815.48
2018-12-03T23:16:40.892Z,99818.32
2018-12-03T23:19:14.606Z,99819.17
2018-12-03T23:21:47.749Z,99819.44
2018-12-03T23:24:20.370Z,99822.50
2018-12-03T23:26:53.202Z,99827.90
2018-12-03T23:29:24.936Z,99823.64
2018-12-03T23:31:56.979Z,99833.47
2018-12-03T23:34:28.624Z,99820.31
2018-12-03T23:37:04.343Z,99820.83
2018-12-03T23:39:37.269Z,99817.94
2018-12-03T23:42:09.079Z,99816.95
2018-12-03T23:44:40.702Z,99820.19
2018-12-03T23:47:13.904Z,99822.53
2018-12-03T23:49:47.518Z,99825.92
2018-12-03T23:52:19.544Z,99825.41
2018-12-03T23:54:51.439Z,99830.07
2018-12-03T23:57:23.616Z,99828.59
2018-12-03T23:59:58.757Z,99833.96
